Главная страница
METAR-TAF:

METAR-TAF

Аэропорты :

Уппсала, Швеция

широта: 59-53N, долгота: 017-36E, высота над уровнем моря: 21 м

Текущие метеонаблюдения

Эта сводка был подготовлена 22 минут назад, в 21:20 UTC
Ветер 6 Узел от восточный
Температура 12°C
Влажность 58%
Давление 1019 hPa
Видимость 10 км и более

METAR: ESCM 252120Z AUTO 08006KT 9999 SCT060/// OVC076/// 12/04 Q1019

Время: 23:42 (21:42 UTC)

Прогноз

Эта сводка был подготовлена 10 часа и 7 минут назад, в 11:35 UTC
Прогноз действительный с 25-го 12 UTC до 25-го 14 UTC
Ветер 13 Узел от восточно-юго-восточный
Видимость 10 км и более
Нет облачности ниже 1500 м, и нет кучево-дождевой облачности

TAF: ESCM 251135Z 2512/2514 11013KT CAVOK RMK MIL

Метеонаблюдения и прогнозы для более 4000 аэропортов (сводки METAR и TAF).

Имеющиеся станции представлены на карте желтыми и красными точками.

Чтобы увидеть название станции, наведите на нее мышь.

Затем щелкните, чтобы увидеть метеонаблюдения и метеопрогнозы.

Управление картой: чтобы увеличить масштаб, щелкните зеленые кнопки с черным крестиком; чтобы уменьшить масштаб, щелкните зеленую кнопку с тире; для просмотра соседних карт щелкайте зеленые стрелки.


METAR-TAF: